sensor_id;sensor_type;location;lat;lon;timestamp;temperature;humidity
28530;DHT22;15737;49.760;6.632;2022-12-13T00:01:53;-2.90;99.90
28530;DHT22;15737;49.760;6.632;2022-12-13T00:04:20;-2.80;99.90
28530;DHT22;15737;49.760;6.632;2022-12-13T00:06:46;-2.80;99.90
28530;DHT22;15737;49.760;6.632;2022-12-13T00:09:28;-2.80;99.90
28530;DHT22;15737;49.760;6.632;2022-12-13T00:11:54;-2.80;99.90
28530;DHT22;15737;49.760;6.632;2022-12-13T00:14:19;-2.80;99.90
28530;DHT22;15737;49.760;6.632;2022-12-13T00:16:46;-2.80;99.90
28530;DHT22;15737;49.760;6.632;2022-12-13T00:19:12;-2.80;99.90
28530;DHT22;15737;49.760;6.632;2022-12-13T00:21:38;-2.80;99.90
28530;DHT22;15737;49.760;6.632;2022-12-13T00:24:05;-2.80;99.90
28530;DHT22;15737;49.760;6.632;2022-12-13T00:26:31;-2.90;99.90
28530;DHT22;15737;49.760;6.632;2022-12-13T00:29:01;-2.80;99.90
28530;DHT22;15737;49.760;6.632;2022-12-13T00:31:27;-3.00;99.90
28530;DHT22;15737;49.760;6.632;2022-12-13T00:33:56;-3.30;99.90
28530;DHT22;15737;49.760;6.632;2022-12-13T00:36:22;-3.70;99.90
28530;DHT22;15737;49.760;6.632;2022-12-13T00:38:47;-4.00;99.90
28530;DHT22;15737;49.760;6.632;2022-12-13T00:41:25;-4.00;99.90
28530;DHT22;15737;49.760;6.632;2022-12-13T00:43:51;-3.90;99.90
28530;DHT22;15737;49.760;6.632;2022-12-13T00:46:18;-3.70;99.90
28530;DHT22;15737;49.760;6.632;2022-12-13T00:48:49;-3.60;99.90
28530;DHT22;15737;49.760;6.632;2022-12-13T00:51:15;-3.40;99.90
28530;DHT22;15737;49.760;6.632;2022-12-13T00:53:40;-3.20;99.90
28530;DHT22;15737;49.760;6.632;2022-12-13T00:56:12;-3.20;99.90
28530;DHT22;15737;49.760;6.632;2022-12-13T00:58:40;-3.20;99.90
28530;DHT22;15737;49.760;6.632;2022-12-13T01:01:12;-3.20;99.90
28530;DHT22;15737;49.760;6.632;2022-12-13T01:03:38;-3.10;99.90
28530;DHT22;15737;49.760;6.632;2022-12-13T01:06:09;-3.10;99.90
28530;DHT22;15737;49.760;6.632;2022-12-13T01:08:35;-3.10;99.90
28530;DHT22;15737;49.760;6.632;2022-12-13T01:11:03;-3.20;99.90
28530;DHT22;15737;49.760;6.632;2022-12-13T01:13:28;-3.20;99.90
28530;DHT22;15737;49.760;6.632;2022-12-13T01:15:54;-3.30;99.90
28530;DHT22;15737;49.760;6.632;2022-12-13T01:18:19;-3.40;99.90
28530;DHT22;15737;49.760;6.632;2022-12-13T01:21:11;-3.70;99.90
28530;DHT22;15737;49.760;6.632;2022-12-13T01:23:37;-3.90;99.90
28530;DHT22;15737;49.760;6.632;2022-12-13T01:26:12;-4.00;99.90
28530;DHT22;15737;49.760;6.632;2022-12-13T01:28:38;-4.20;99.90
28530;DHT22;15737;49.760;6.632;2022-12-13T01:31:07;-4.50;99.90
28530;DHT22;15737;49.760;6.632;2022-12-13T01:33:34;-4.70;99.90
28530;DHT22;15737;49.760;6.632;2022-12-13T01:36:00;-4.80;99.90
28530;DHT22;15737;49.760;6.632;2022-12-13T01:38:27;-4.90;99.90
28530;DHT22;15737;49.760;6.632;2022-12-13T01:40:53;-5.00;99.90
28530;DHT22;15737;49.760;6.632;2022-12-13T01:43:48;-4.90;99.90
28530;DHT22;15737;49.760;6.632;2022-12-13T01:46:16;-4.90;99.90
28530;DHT22;15737;49.760;6.632;2022-12-13T01:48:46;-4.70;99.90
28530;DHT22;15737;49.760;6.632;2022-12-13T01:51:16;-4.50;99.90
28530;DHT22;15737;49.760;6.632;2022-12-13T01:53:44;-4.30;99.90
28530;DHT22;15737;49.760;6.632;2022-12-13T01:56:16;-4.20;99.90
28530;DHT22;15737;49.760;6.632;2022-12-13T01:58:43;-4.00;99.90
28530;DHT22;15737;49.760;6.632;2022-12-13T02:01:10;-3.80;99.90
28530;DHT22;15737;49.760;6.632;2022-12-13T02:03:36;-3.60;99.90
28530;DHT22;15737;49.760;6.632;2022-12-13T02:06:24;-3.50;99.90
28530;DHT22;15737;49.760;6.632;2022-12-13T02:08:51;-3.40;99.90
28530;DHT22;15737;49.760;6.632;2022-12-13T02:11:17;-3.40;99.90
28530;DHT22;15737;49.760;6.632;2022-12-13T02:13:42;-3.40;99.90
28530;DHT22;15737;49.760;6.632;2022-12-13T02:16:22;-3.40;99.90
28530;DHT22;15737;49.760;6.632;2022-12-13T02:25:03;-4.00;99.90
28530;DHT22;15737;49.760;6.632;2022-12-13T02:39:08;-3.40;99.90
28530;DHT22;15737;49.760;6.632;2022-12-13T02:41:49;-3.30;99.90
28530;DHT22;15737;49.760;6.632;2022-12-13T02:44:24;-3.50;99.90
28530;DHT22;15737;49.760;6.632;2022-12-13T02:46:54;-3.90;99.90
28530;DHT22;15737;49.760;6.632;2022-12-13T02:49:23;-4.20;99.90
28530;DHT22;15737;49.760;6.632;2022-12-13T02:51:50;-4.30;99.90
28530;DHT22;15737;49.760;6.632;2022-12-13T02:54:17;-4.40;99.90
28530;DHT22;15737;49.760;6.632;2022-12-13T02:56:57;-4.30;99.90
28530;DHT22;15737;49.760;6.632;2022-12-13T02:59:34;-4.10;99.90
28530;DHT22;15737;49.760;6.632;2022-12-13T03:02:23;-3.90;99.90
28530;DHT22;15737;49.760;6.632;2022-12-13T03:07:53;-3.90;99.90
28530;DHT22;15737;49.760;6.632;2022-12-13T03:10:35;-4.00;99.90
28530;DHT22;15737;49.760;6.632;2022-12-13T03:13:06;-4.20;99.90
28530;DHT22;15737;49.760;6.632;2022-12-13T03:15:57;-4.20;99.90
28530;DHT22;15737;49.760;6.632;2022-12-13T03:21:01;-4.10;99.90
28530;DHT22;15737;49.760;6.632;2022-12-13T03:23:27;-4.10;99.90
28530;DHT22;15737;49.760;6.632;2022-12-13T03:25:55;-4.10;99.90
28530;DHT22;15737;49.760;6.632;2022-12-13T03:28:22;-4.10;99.90
28530;DHT22;15737;49.760;6.632;2022-12-13T03:30:48;-4.00;99.90
28530;DHT22;15737;49.760;6.632;2022-12-13T03:33:13;-4.00;99.90
28530;DHT22;15737;49.760;6.632;2022-12-13T03:35:41;-4.00;99.90
28530;DHT22;15737;49.760;6.632;2022-12-13T03:38:07;-4.00;99.90
28530;DHT22;15737;49.760;6.632;2022-12-13T03:40:33;-3.90;99.90
28530;DHT22;15737;49.760;6.632;2022-12-13T03:42:59;-3.90;99.90
28530;DHT22;15737;49.760;6.632;2022-12-13T03:45:24;-3.90;99.90
28530;DHT22;15737;49.760;6.632;2022-12-13T03:47:50;-3.80;99.90
28530;DHT22;15737;49.760;6.632;2022-12-13T03:50:16;-3.80;99.90
28530;DHT22;15737;49.760;6.632;2022-12-13T03:52:41;-3.80;99.90
28530;DHT22;15737;49.760;6.632;2022-12-13T03:55:08;-3.80;99.90
28530;DHT22;15737;49.760;6.632;2022-12-13T03:57:34;-3.90;99.90
28530;DHT22;15737;49.760;6.632;2022-12-13T04:00:07;-3.90;99.90
28530;DHT22;15737;49.760;6.632;2022-12-13T04:02:34;-3.90;99.90
28530;DHT22;15737;49.760;6.632;2022-12-13T04:04:59;-4.00;99.90
28530;DHT22;15737;49.760;6.632;2022-12-13T04:07:25;-4.10;99.90
28530;DHT22;15737;49.760;6.632;2022-12-13T04:09:50;-4.10;99.90
28530;DHT22;15737;49.760;6.632;2022-12-13T04:12:16;-4.00;99.90
28530;DHT22;15737;49.760;6.632;2022-12-13T04:15:00;-3.90;99.90
28530;DHT22;15737;49.760;6.632;2022-12-13T04:17:25;-3.90;99.90
28530;DHT22;15737;49.760;6.632;2022-12-13T04:19:51;-3.90;99.90
28530;DHT22;15737;49.760;6.632;2022-12-13T04:22:16;-3.90;99.90
28530;DHT22;15737;49.760;6.632;2022-12-13T04:24:42;-4.00;99.90
28530;DHT22;15737;49.760;6.632;2022-12-13T04:27:07;-4.00;99.90
28530;DHT22;15737;49.760;6.632;2022-12-13T04:29:33;-4.00;99.90
28530;DHT22;15737;49.760;6.632;2022-12-13T04:31:58;-4.10;99.90
28530;DHT22;15737;49.760;6.632;2022-12-13T04:34:24;-4.10;99.90
28530;DHT22;15737;49.760;6.632;2022-12-13T04:36:49;-4.10;99.90
28530;DHT22;15737;49.760;6.632;2022-12-13T04:39:14;-4.10;99.90
28530;DHT22;15737;49.760;6.632;2022-12-13T04:41:40;-4.10;99.90
28530;DHT22;15737;49.760;6.632;2022-12-13T04:44:07;-4.10;99.90
28530;DHT22;15737;49.760;6.632;2022-12-13T04:46:33;-4.10;99.90
28530;DHT22;15737;49.760;6.632;2022-12-13T04:48:59;-4.10;99.90
28530;DHT22;15737;49.760;6.632;2022-12-13T04:51:24;-4.10;99.90
28530;DHT22;15737;49.760;6.632;2022-12-13T04:53:50;-4.10;99.90
28530;DHT22;15737;49.760;6.632;2022-12-13T04:56:15;-4.10;99.90
28530;DHT22;15737;49.760;6.632;2022-12-13T04:58:41;-4.10;99.90
28530;DHT22;15737;49.760;6.632;2022-12-13T05:01:07;-4.20;99.90
28530;DHT22;15737;49.760;6.632;2022-12-13T05:03:33;-4.10;99.90
28530;DHT22;15737;49.760;6.632;2022-12-13T05:06:03;-4.10;99.90
28530;DHT22;15737;49.760;6.632;2022-12-13T05:08:29;-4.10;99.90
28530;DHT22;15737;49.760;6.632;2022-12-13T05:10:54;-4.10;99.90
28530;DHT22;15737;49.760;6.632;2022-12-13T05:13:20;-4.20;99.90
28530;DHT22;15737;49.760;6.632;2022-12-13T05:15:45;-4.10;99.90
28530;DHT22;15737;49.760;6.632;2022-12-13T05:18:11;-4.10;99.90
28530;DHT22;15737;49.760;6.632;2022-12-13T05:20:38;-4.10;99.90
28530;DHT22;15737;49.760;6.632;2022-12-13T05:23:03;-4.10;99.90
28530;DHT22;15737;49.760;6.632;2022-12-13T05:25:29;-4.10;99.90
28530;DHT22;15737;49.760;6.632;2022-12-13T05:27:55;-4.10;99.90
28530;DHT22;15737;49.760;6.632;2022-12-13T05:30:21;-4.10;99.90
28530;DHT22;15737;49.760;6.632;2022-12-13T05:35:21;-4.10;99.90
28530;DHT22;15737;49.760;6.632;2022-12-13T05:37:47;-4.10;99.90
28530;DHT22;15737;49.760;6.632;2022-12-13T05:40:12;-4.10;99.90
28530;DHT22;15737;49.760;6.632;2022-12-13T05:42:38;-4.20;99.90
28530;DHT22;15737;49.760;6.632;2022-12-13T05:45:05;-4.20;99.90
28530;DHT22;15737;49.760;6.632;2022-12-13T05:47:31;-4.10;99.90
28530;DHT22;15737;49.760;6.632;2022-12-13T05:49:57;-4.10;99.90
28530;DHT22;15737;49.760;6.632;2022-12-13T05:52:22;-4.10;99.90
28530;DHT22;15737;49.760;6.632;2022-12-13T05:54:52;-4.10;99.90
28530;DHT22;15737;49.760;6.632;2022-12-13T05:57:18;-4.10;99.90
28530;DHT22;15737;49.760;6.632;2022-12-13T05:59:55;-4.00;99.90
28530;DHT22;15737;49.760;6.632;2022-12-13T06:02:20;-4.00;99.90
28530;DHT22;15737;49.760;6.632;2022-12-13T06:04:46;-4.10;99.90
28530;DHT22;15737;49.760;6.632;2022-12-13T06:07:12;-4.10;99.90
28530;DHT22;15737;49.760;6.632;2022-12-13T06:09:38;-4.20;99.90
28530;DHT22;15737;49.760;6.632;2022-12-13T06:12:03;-4.20;99.90
28530;DHT22;15737;49.760;6.632;2022-12-13T06:14:29;-4.10;99.90
28530;DHT22;15737;49.760;6.632;2022-12-13T06:16:54;-4.00;99.90
28530;DHT22;15737;49.760;6.632;2022-12-13T06:19:21;-4.10;99.90
28530;DHT22;15737;49.760;6.632;2022-12-13T06:21:48;-4.10;99.90
28530;DHT22;15737;49.760;6.632;2022-12-13T06:24:18;-4.20;99.90
28530;DHT22;15737;49.760;6.632;2022-12-13T06:26:44;-4.30;99.90
28530;DHT22;15737;49.760;6.632;2022-12-13T06:29:09;-4.30;99.90
28530;DHT22;15737;49.760;6.632;2022-12-13T06:31:35;-4.30;99.90
28530;DHT22;15737;49.760;6.632;2022-12-13T06:34:02;-4.30;99.90
28530;DHT22;15737;49.760;6.632;2022-12-13T06:36:27;-4.30;99.90
28530;DHT22;15737;49.760;6.632;2022-12-13T06:38:53;-4.40;99.90
28530;DHT22;15737;49.760;6.632;2022-12-13T06:41:18;-4.30;99.90
28530;DHT22;15737;49.760;6.632;2022-12-13T06:43:45;-4.30;99.90
28530;DHT22;15737;49.760;6.632;2022-12-13T06:46:11;-4.30;99.90
28530;DHT22;15737;49.760;6.632;2022-12-13T06:50:19;-4.30;99.90
28530;DHT22;15737;49.760;6.632;2022-12-13T06:52:45;-4.30;99.90
28530;DHT22;15737;49.760;6.632;2022-12-13T06:55:11;-4.30;99.90
28530;DHT22;15737;49.760;6.632;2022-12-13T06:57:36;-4.30;99.90
28530;DHT22;15737;49.760;6.632;2022-12-13T07:00:03;-4.20;99.90
28530;DHT22;15737;49.760;6.632;2022-12-13T07:02:30;-4.40;99.90
28530;DHT22;15737;49.760;6.632;2022-12-13T07:04:56;-4.30;99.90
28530;DHT22;15737;49.760;6.632;2022-12-13T07:07:23;-4.30;99.90
28530;DHT22;15737;49.760;6.632;2022-12-13T07:09:49;-4.30;99.90
28530;DHT22;15737;49.760;6.632;2022-12-13T07:12:14;-4.30;99.90
28530;DHT22;15737;49.760;6.632;2022-12-13T07:14:40;-4.40;99.90
28530;DHT22;15737;49.760;6.632;2022-12-13T07:17:05;-4.30;99.90
28530;DHT22;15737;49.760;6.632;2022-12-13T07:19:31;-4.30;99.90
28530;DHT22;15737;49.760;6.632;2022-12-13T07:21:56;-4.30;99.90
28530;DHT22;15737;49.760;6.632;2022-12-13T07:24:22;-4.30;99.90
28530;DHT22;15737;49.760;6.632;2022-12-13T07:26:47;-4.30;99.90
28530;DHT22;15737;49.760;6.632;2022-12-13T07:29:25;-4.20;99.90
28530;DHT22;15737;49.760;6.632;2022-12-13T07:31:51;-4.20;99.90
28530;DHT22;15737;49.760;6.632;2022-12-13T07:34:17;-4.10;99.90
28530;DHT22;15737;49.760;6.632;2022-12-13T07:36:43;-4.20;99.90
28530;DHT22;15737;49.760;6.632;2022-12-13T07:39:09;-4.20;99.90
28530;DHT22;15737;49.760;6.632;2022-12-13T07:41:34;-4.10;99.90
28530;DHT22;15737;49.760;6.632;2022-12-13T07:43:59;-4.00;99.90
28530;DHT22;15737;49.760;6.632;2022-12-13T07:46:25;-4.00;99.90
28530;DHT22;15737;49.760;6.632;2022-12-13T07:48:50;-3.90;99.90
28530;DHT22;15737;49.760;6.632;2022-12-13T07:51:16;-3.80;99.90
28530;DHT22;15737;49.760;6.632;2022-12-13T07:53:41;-3.70;99.90
28530;DHT22;15737;49.760;6.632;2022-12-13T07:56:24;-3.60;99.90
28530;DHT22;15737;49.760;6.632;2022-12-13T07:58:50;-3.50;99.90
28530;DHT22;15737;49.760;6.632;2022-12-13T08:01:15;-3.30;99.90
28530;DHT22;15737;49.760;6.632;2022-12-13T08:03:41;-3.00;99.90
28530;DHT22;15737;49.760;6.632;2022-12-13T08:06:09;-2.70;99.90
28530;DHT22;15737;49.760;6.632;2022-12-13T08:08:35;-2.30;99.90
28530;DHT22;15737;49.760;6.632;2022-12-13T08:13:27;-1.80;99.90
28530;DHT22;15737;49.760;6.632;2022-12-13T08:15:59;-1.60;99.90
28530;DHT22;15737;49.760;6.632;2022-12-13T08:18:26;-1.60;99.90
28530;DHT22;15737;49.760;6.632;2022-12-13T08:20:51;-1.80;99.90
28530;DHT22;15737;49.760;6.632;2022-12-13T08:23:17;-1.80;99.90
28530;DHT22;15737;49.760;6.632;2022-12-13T08:25:50;-1.90;99.90
28530;DHT22;15737;49.760;6.632;2022-12-13T08:28:16;-2.10;99.90
28530;DHT22;15737;49.760;6.632;2022-12-13T08:30:41;-2.10;99.90
28530;DHT22;15737;49.760;6.632;2022-12-13T08:33:07;-2.10;99.90
28530;DHT22;15737;49.760;6.632;2022-12-13T08:35:32;-2.30;99.90
28530;DHT22;15737;49.760;6.632;2022-12-13T08:38:11;-2.30;99.90
28530;DHT22;15737;49.760;6.632;2022-12-13T08:40:37;-2.30;99.90
28530;DHT22;15737;49.760;6.632;2022-12-13T08:43:03;-2.30;99.90
28530;DHT22;15737;49.760;6.632;2022-12-13T08:45:29;-2.20;99.90
28530;DHT22;15737;49.760;6.632;2022-12-13T08:47:57;-2.10;99.90
28530;DHT22;15737;49.760;6.632;2022-12-13T08:50:26;-1.90;99.90
28530;DHT22;15737;49.760;6.632;2022-12-13T08:52:54;-1.80;99.90
28530;DHT22;15737;49.760;6.632;2022-12-13T08:58:05;-1.50;99.90
28530;DHT22;15737;49.760;6.632;2022-12-13T09:00:34;-1.20;99.90
28530;DHT22;15737;49.760;6.632;2022-12-13T09:03:01;-0.90;99.90
28530;DHT22;15737;49.760;6.632;2022-12-13T09:05:30;-0.80;99.90
28530;DHT22;15737;49.760;6.632;2022-12-13T09:13:02;-0.20;99.90
28530;DHT22;15737;49.760;6.632;2022-12-13T09:15:29;0.30;99.90
28530;DHT22;15737;49.760;6.632;2022-12-13T09:17:54;0.80;99.90
28530;DHT22;15737;49.760;6.632;2022-12-13T09:25:36;1.90;99.90
28530;DHT22;15737;49.760;6.632;2022-12-13T09:30:52;1.90;99.90
28530;DHT22;15737;49.760;6.632;2022-12-13T09:33:34;1.70;99.90
28530;DHT22;15737;49.760;6.632;2022-12-13T09:46:37;3.00;99.90
28530;DHT22;15737;49.760;6.632;2022-12-13T09:52:12;3.30;99.90
28530;DHT22;15737;49.760;6.632;2022-12-13T09:57:34;4.00;99.90
28530;DHT22;15737;49.760;6.632;2022-12-13T10:18:56;4.80;99.90
28530;DHT22;15737;49.760;6.632;2022-12-13T10:21:42;4.50;99.90
28530;DHT22;15737;49.760;6.632;2022-12-13T10:25:10;4.30;99.90
28530;DHT22;15737;49.760;6.632;2022-12-13T10:30:23;4.60;99.90
28530;DHT22;15737;49.760;6.632;2022-12-13T10:33:03;4.30;99.90
28530;DHT22;15737;49.760;6.632;2022-12-13T10:39:34;4.60;99.90
28530;DHT22;15737;49.760;6.632;2022-12-13T10:47:29;5.20;99.90
28530;DHT22;15737;49.760;6.632;2022-12-13T10:50:20;5.30;99.90
28530;DHT22;15737;49.760;6.632;2022-12-13T10:58:22;2.50;99.90
28530;DHT22;15737;49.760;6.632;2022-12-13T11:12:29;2.60;99.90
28530;DHT22;15737;49.760;6.632;2022-12-13T11:17:58;3.50;99.90
28530;DHT22;15737;49.760;6.632;2022-12-13T11:20:45;3.40;99.90
28530;DHT22;15737;49.760;6.632;2022-12-13T11:23:47;3.30;99.90
28530;DHT22;15737;49.760;6.632;2022-12-13T11:26:22;2.90;99.90
28530;DHT22;15737;49.760;6.632;2022-12-13T11:29:17;2.60;99.90
28530;DHT22;15737;49.760;6.632;2022-12-13T11:37:39;2.50;99.90
28530;DHT22;15737;49.760;6.632;2022-12-13T11:40:26;2.40;99.90
28530;DHT22;15737;49.760;6.632;2022-12-13T11:45:51;2.20;99.90
28530;DHT22;15737;49.760;6.632;2022-12-13T11:48:29;2.20;99.90
28530;DHT22;15737;49.760;6.632;2022-12-13T11:54:04;2.90;99.90
28530;DHT22;15737;49.760;6.632;2022-12-13T11:56:47;2.80;99.90
28530;DHT22;15737;49.760;6.632;2022-12-13T11:59:47;2.90;99.90
28530;DHT22;15737;49.760;6.632;2022-12-13T12:02:37;3.20;99.90
28530;DHT22;15737;49.760;6.632;2022-12-13T12:05:32;3.30;99.90
28530;DHT22;15737;49.760;6.632;2022-12-13T12:08:05;3.10;99.90
28530;DHT22;15737;49.760;6.632;2022-12-13T12:10:37;2.70;99.90
28530;DHT22;15737;49.760;6.632;2022-12-13T12:18:30;2.40;99.90
28530;DHT22;15737;49.760;6.632;2022-12-13T12:24:08;2.10;99.90
28530;DHT22;15737;49.760;6.632;2022-12-13T12:29:53;2.10;99.90
28530;DHT22;15737;49.760;6.632;2022-12-13T12:32:40;2.00;99.90
28530;DHT22;15737;49.760;6.632;2022-12-13T12:36:12;2.00;99.90
28530;DHT22;15737;49.760;6.632;2022-12-13T12:41:23;2.40;99.90
28530;DHT22;15737;49.760;6.632;2022-12-13T12:44:10;2.60;99.90
28530;DHT22;15737;49.760;6.632;2022-12-13T12:46:58;2.60;99.90
28530;DHT22;15737;49.760;6.632;2022-12-13T12:49:34;2.60;99.90
28530;DHT22;15737;49.760;6.632;2022-12-13T12:54:59;2.50;99.90
28530;DHT22;15737;49.760;6.632;2022-12-13T13:00:16;2.70;99.90
28530;DHT22;15737;49.760;6.632;2022-12-13T13:02:56;3.00;99.90
28530;DHT22;15737;49.760;6.632;2022-12-13T13:05:28;3.20;99.90
28530;DHT22;15737;49.760;6.632;2022-12-13T13:07:58;3.10;99.90
28530;DHT22;15737;49.760;6.632;2022-12-13T13:10:25;3.20;99.90
28530;DHT22;15737;49.760;6.632;2022-12-13T13:12:51;3.00;99.90
28530;DHT22;15737;49.760;6.632;2022-12-13T13:18:00;2.70;99.90
28530;DHT22;15737;49.760;6.632;2022-12-13T13:20:27;2.70;99.90
28530;DHT22;15737;49.760;6.632;2022-12-13T13:22:54;2.60;99.90
28530;DHT22;15737;49.760;6.632;2022-12-13T13:25:30;2.60;99.90
28530;DHT22;15737;49.760;6.632;2022-12-13T13:36:05;2.30;99.90
28530;DHT22;15737;49.760;6.632;2022-12-13T13:38:49;1.90;99.90
28530;DHT22;15737;49.760;6.632;2022-12-13T13:41:40;1.70;99.90
28530;DHT22;15737;49.760;6.632;2022-12-13T13:47:14;1.90;99.90
28530;DHT22;15737;49.760;6.632;2022-12-13T13:50:02;1.90;99.90
28530;DHT22;15737;49.760;6.632;2022-12-13T13:55:54;2.30;99.90
28530;DHT22;15737;49.760;6.632;2022-12-13T14:21:15;1.60;99.90
28530;DHT22;15737;49.760;6.632;2022-12-13T14:24:15;1.60;99.90
28530;DHT22;15737;49.760;6.632;2022-12-13T14:29:31;1.70;99.90
28530;DHT22;15737;49.760;6.632;2022-12-13T14:31:57;1.50;99.90
28530;DHT22;15737;49.760;6.632;2022-12-13T14:34:28;1.40;99.90
28530;DHT22;15737;49.760;6.632;2022-12-13T14:37:00;1.40;99.90
28530;DHT22;15737;49.760;6.632;2022-12-13T14:39:27;1.10;99.90
28530;DHT22;15737;49.760;6.632;2022-12-13T14:41:59;0.80;99.90
28530;DHT22;15737;49.760;6.632;2022-12-13T14:44:30;0.70;99.90
28530;DHT22;15737;49.760;6.632;2022-12-13T14:46:59;0.50;99.90
28530;DHT22;15737;49.760;6.632;2022-12-13T14:49:27;0.40;99.90
28530;DHT22;15737;49.760;6.632;2022-12-13T14:54:30;0.10;99.90
28530;DHT22;15737;49.760;6.632;2022-12-13T14:57:02;0.00;99.90
28530;DHT22;15737;49.760;6.632;2022-12-13T14:59:29;-0.10;99.90
28530;DHT22;15737;49.760;6.632;2022-12-13T15:02:00;-0.10;99.90
28530;DHT22;15737;49.760;6.632;2022-12-13T15:04:31;-0.30;99.90
28530;DHT22;15737;49.760;6.632;2022-12-13T15:07:12;-0.40;99.90
28530;DHT22;15737;49.760;6.632;2022-12-13T15:09:41;-0.40;99.90
28530;DHT22;15737;49.760;6.632;2022-12-13T15:12:10;-0.40;99.90
28530;DHT22;15737;49.760;6.632;2022-12-13T15:14:37;-0.40;99.90
28530;DHT22;15737;49.760;6.632;2022-12-13T15:17:03;-0.30;99.90
28530;DHT22;15737;49.760;6.632;2022-12-13T15:19:29;-0.40;99.90
28530;DHT22;15737;49.760;6.632;2022-12-13T15:22:03;-0.50;99.90
28530;DHT22;15737;49.760;6.632;2022-12-13T15:24:34;-0.50;99.90
28530;DHT22;15737;49.760;6.632;2022-12-13T15:27:19;-0.60;99.90
28530;DHT22;15737;49.760;6.632;2022-12-13T15:29:47;-0.60;99.90
28530;DHT22;15737;49.760;6.632;2022-12-13T15:32:15;-0.70;99.90
28530;DHT22;15737;49.760;6.632;2022-12-13T15:34:44;-0.70;99.90
28530;DHT22;15737;49.760;6.632;2022-12-13T15:39:43;-0.70;99.90
28530;DHT22;15737;49.760;6.632;2022-12-13T15:42:30;-0.80;99.90
28530;DHT22;15737;49.760;6.632;2022-12-13T15:45:03;-0.70;99.90
28530;DHT22;15737;49.760;6.632;2022-12-13T15:47:30;-0.70;99.90
28530;DHT22;15737;49.760;6.632;2022-12-13T15:52:39;-0.70;99.90
28530;DHT22;15737;49.760;6.632;2022-12-13T15:57:51;-0.80;99.90
28530;DHT22;15737;49.760;6.632;2022-12-13T16:02:58;-0.80;99.90
28530;DHT22;15737;49.760;6.632;2022-12-13T16:05:29;-0.80;99.90
28530;DHT22;15737;49.760;6.632;2022-12-13T16:07:58;-0.80;99.90
28530;DHT22;15737;49.760;6.632;2022-12-13T16:10:26;-0.80;99.90
28530;DHT22;15737;49.760;6.632;2022-12-13T16:12:55;-0.80;99.90
28530;DHT22;15737;49.760;6.632;2022-12-13T16:15:24;-0.80;99.90
28530;DHT22;15737;49.760;6.632;2022-12-13T16:17:55;-0.80;99.90
28530;DHT22;15737;49.760;6.632;2022-12-13T16:20:28;-0.80;99.90
28530;DHT22;15737;49.760;6.632;2022-12-13T16:22:54;-0.90;99.90
28530;DHT22;15737;49.760;6.632;2022-12-13T16:25:20;-0.90;99.90
28530;DHT22;15737;49.760;6.632;2022-12-13T16:27:45;-0.90;99.90
28530;DHT22;15737;49.760;6.632;2022-12-13T16:33:13;-0.90;99.90
28530;DHT22;15737;49.760;6.632;2022-12-13T16:35:38;-0.90;99.90
28530;DHT22;15737;49.760;6.632;2022-12-13T16:38:03;-1.00;99.90
28530;DHT22;15737;49.760;6.632;2022-12-13T16:40:29;-1.00;99.90
28530;DHT22;15737;49.760;6.632;2022-12-13T16:42:58;-1.00;99.90
28530;DHT22;15737;49.760;6.632;2022-12-13T16:45:28;-1.00;99.90
28530;DHT22;15737;49.760;6.632;2022-12-13T16:48:12;-1.00;99.90
28530;DHT22;15737;49.760;6.632;2022-12-13T16:50:42;-1.00;99.90
28530;DHT22;15737;49.760;6.632;2022-12-13T16:53:08;-1.00;99.90
28530;DHT22;15737;49.760;6.632;2022-12-13T16:55:33;-1.00;99.90
28530;DHT22;15737;49.760;6.632;2022-12-13T16:58:02;-1.00;99.90
28530;DHT22;15737;49.760;6.632;2022-12-13T17:00:29;-1.00;99.90
28530;DHT22;15737;49.760;6.632;2022-12-13T17:02:56;-1.00;99.90
28530;DHT22;15737;49.760;6.632;2022-12-13T17:05:23;-1.10;99.90
28530;DHT22;15737;49.760;6.632;2022-12-13T17:07:49;-1.20;99.90
28530;DHT22;15737;49.760;6.632;2022-12-13T17:10:16;-1.20;99.90
28530;DHT22;15737;49.760;6.632;2022-12-13T17:12:41;-1.20;99.90
28530;DHT22;15737;49.760;6.632;2022-12-13T17:15:08;-1.10;99.90
28530;DHT22;15737;49.760;6.632;2022-12-13T17:17:42;-1.10;99.90
28530;DHT22;15737;49.760;6.632;2022-12-13T17:20:10;-1.20;99.90
28530;DHT22;15737;49.760;6.632;2022-12-13T17:22:37;-1.10;99.90
28530;DHT22;15737;49.760;6.632;2022-12-13T17:25:03;-1.20;99.90
28530;DHT22;15737;49.760;6.632;2022-12-13T17:27:30;-1.20;99.90
28530;DHT22;15737;49.760;6.632;2022-12-13T17:29:56;-1.20;99.90
28530;DHT22;15737;49.760;6.632;2022-12-13T17:32:22;-1.10;99.90
28530;DHT22;15737;49.760;6.632;2022-12-13T17:37:18;-1.20;99.90
28530;DHT22;15737;49.760;6.632;2022-12-13T17:39:44;-1.20;99.90
28530;DHT22;15737;49.760;6.632;2022-12-13T17:42:10;-1.20;99.90
28530;DHT22;15737;49.760;6.632;2022-12-13T17:44:56;-1.20;99.90
28530;DHT22;15737;49.760;6.632;2022-12-13T17:47:21;-1.30;99.90
28530;DHT22;15737;49.760;6.632;2022-12-13T17:49:47;-1.20;99.90
28530;DHT22;15737;49.760;6.632;2022-12-13T17:52:12;-1.20;99.90
28530;DHT22;15737;49.760;6.632;2022-12-13T17:54:38;-1.20;99.90
28530;DHT22;15737;49.760;6.632;2022-12-13T17:57:26;-1.20;99.90
28530;DHT22;15737;49.760;6.632;2022-12-13T17:59:52;-1.10;99.90
28530;DHT22;15737;49.760;6.632;2022-12-13T18:02:17;-1.20;99.90
28530;DHT22;15737;49.760;6.632;2022-12-13T18:04:47;-1.20;99.90
28530;DHT22;15737;49.760;6.632;2022-12-13T18:07:13;-1.20;99.90
28530;DHT22;15737;49.760;6.632;2022-12-13T18:09:38;-1.20;99.90
28530;DHT22;15737;49.760;6.632;2022-12-13T18:12:21;-1.20;99.90
28530;DHT22;15737;49.760;6.632;2022-12-13T18:14:47;-1.20;99.90
28530;DHT22;15737;49.760;6.632;2022-12-13T18:17:12;-1.20;99.90
28530;DHT22;15737;49.760;6.632;2022-12-13T18:19:38;-1.20;99.90
28530;DHT22;15737;49.760;6.632;2022-12-13T18:22:03;-1.10;99.90
28530;DHT22;15737;49.760;6.632;2022-12-13T18:24:29;-1.20;99.90
28530;DHT22;15737;49.760;6.632;2022-12-13T18:26:54;-1.20;99.90
28530;DHT22;15737;49.760;6.632;2022-12-13T18:29:20;-1.20;99.90
28530;DHT22;15737;49.760;6.632;2022-12-13T18:31:45;-1.30;99.90
28530;DHT22;15737;49.760;6.632;2022-12-13T18:34:11;-1.30;99.90
28530;DHT22;15737;49.760;6.632;2022-12-13T18:39:16;-1.40;99.90
28530;DHT22;15737;49.760;6.632;2022-12-13T18:41:42;-1.40;99.90
28530;DHT22;15737;49.760;6.632;2022-12-13T18:44:09;-1.40;99.90
28530;DHT22;15737;49.760;6.632;2022-12-13T18:46:36;-1.40;99.90
28530;DHT22;15737;49.760;6.632;2022-12-13T18:49:02;-1.30;99.90
28530;DHT22;15737;49.760;6.632;2022-12-13T18:51:28;-1.30;99.90
28530;DHT22;15737;49.760;6.632;2022-12-13T18:53:57;-1.40;99.90
28530;DHT22;15737;49.760;6.632;2022-12-13T18:56:32;-1.40;99.90
28530;DHT22;15737;49.760;6.632;2022-12-13T18:58:57;-1.30;99.90
28530;DHT22;15737;49.760;6.632;2022-12-13T19:01:24;-1.30;99.90
28530;DHT22;15737;49.760;6.632;2022-12-13T19:03:52;-1.20;99.90
28530;DHT22;15737;49.760;6.632;2022-12-13T19:06:24;-1.20;99.90
28530;DHT22;15737;49.760;6.632;2022-12-13T19:09:05;-1.20;99.90
28530;DHT22;15737;49.760;6.632;2022-12-13T19:11:31;-1.20;99.90
28530;DHT22;15737;49.760;6.632;2022-12-13T19:13:56;-1.10;99.90
28530;DHT22;15737;49.760;6.632;2022-12-13T19:16:24;-1.10;99.90
28530;DHT22;15737;49.760;6.632;2022-12-13T19:18:49;-1.20;99.90
28530;DHT22;15737;49.760;6.632;2022-12-13T19:21:17;-1.30;99.90